createdAt,value
2022-11-26T00:01:22.060Z,35.28
2022-11-26T00:03:52.378Z,27.00
2022-11-26T00:06:28.891Z,35.47
2022-11-26T00:08:59.814Z,35.03
2022-11-26T00:11:28.619Z,34.17
2022-11-26T00:13:56.747Z,33.70
2022-11-26T00:16:25.422Z,37.92
2022-11-26T00:18:53.728Z,37.95
2022-11-26T00:21:24.404Z,34.72
2022-11-26T00:23:53.261Z,34.15
2022-11-26T00:26:25.151Z,37.75
2022-11-26T00:28:55.991Z,31.08
2022-11-26T00:31:25.186Z,36.33
2022-11-26T00:33:53.699Z,32.67
2022-11-26T00:36:25.333Z,38.95
2022-11-26T00:38:56.269Z,37.63
2022-11-26T00:41:30.662Z,33.75
2022-11-26T00:43:59.511Z,31.63
2022-11-26T00:46:27.680Z,41.10
2022-11-26T00:48:56.208Z,34.65
2022-11-26T00:51:26.604Z,32.67
2022-11-26T00:53:56.520Z,37.20
2022-11-26T00:56:26.967Z,37.78
2022-11-26T00:58:55.377Z,37.92
2022-11-26T01:01:25.555Z,43.88
2022-11-26T01:03:54.563Z,44.80
2022-11-26T01:06:25.134Z,45.38
2022-11-26T01:08:53.435Z,42.97
2022-11-26T01:11:24.279Z,38.78
2022-11-26T01:13:55.743Z,39.08
2022-11-26T01:16:27.226Z,36.97
2022-11-26T01:18:58.192Z,36.60
2022-11-26T01:21:29.583Z,35.35
2022-11-26T01:23:58.309Z,36.60
2022-11-26T01:26:29.029Z,41.35
2022-11-26T01:28:58.890Z,32.97
2022-11-26T01:31:28.823Z,37.67
2022-11-26T01:33:58.205Z,41.33
2022-11-26T01:36:29.635Z,38.55
2022-11-26T01:38:59.959Z,38.45
2022-11-26T01:41:44.329Z,33.30
2022-11-26T01:44:20.179Z,37.03
2022-11-26T01:46:49.297Z,41.60
2022-11-26T01:49:20.541Z,37.42
2022-11-26T01:51:52.069Z,40.05
2022-11-26T01:54:20.393Z,36.85
2022-11-26T01:56:53.254Z,40.03
2022-11-26T01:59:27.548Z,38.67
2022-11-26T02:01:58.991Z,32.17
2022-11-26T02:04:30.699Z,34.13
2022-11-26T02:06:59.680Z,34.10
2022-11-26T02:09:29.961Z,35.78
2022-11-26T02:11:59.073Z,35.97
2022-11-26T02:14:32.989Z,35.60
2022-11-26T02:17:16.035Z,43.28
2022-11-26T02:20:20.187Z,39.73
2022-11-26T02:23:08.590Z,39.40
2022-11-26T02:26:09.727Z,30.73
2022-11-26T02:29:01.671Z,33.17
2022-11-26T02:31:39.664Z,38.28
2022-11-26T02:34:16.356Z,39.95
2022-11-26T02:36:50.009Z,36.65
2022-11-26T02:41:50.469Z,36.08
2022-11-26T02:44:23.020Z,32.60
2022-11-26T02:46:56.974Z,42.13
2022-11-26T02:49:25.353Z,38.17
2022-11-26T02:51:55.584Z,37.35
2022-11-26T02:54:25.899Z,34.47
2022-11-26T02:56:55.655Z,33.05
2022-11-26T02:59:24.006Z,37.30
2022-11-26T03:01:58.385Z,38.10
2022-11-26T03:04:32.225Z,34.35
2022-11-26T03:07:05.740Z,38.20
2022-11-26T03:09:42.130Z,38.92
2022-11-26T03:12:10.860Z,36.72
2022-11-26T03:14:39.093Z,38.33
2022-11-26T03:17:08.737Z,34.67
2022-11-26T03:19:37.433Z,35.33
2022-11-26T03:22:05.796Z,34.22
2022-11-26T03:24:34.214Z,35.67
2022-11-26T03:27:03.081Z,41.15
2022-11-26T03:29:31.303Z,33.35
2022-11-26T03:31:59.660Z,38.15
2022-11-26T03:34:29.397Z,35.45
2022-11-26T03:36:57.554Z,37.97
2022-11-26T03:39:25.653Z,28.73
2022-11-26T03:41:54.195Z,38.17
2022-11-26T03:44:22.461Z,38.35
2022-11-26T03:46:50.566Z,35.53
2022-11-26T03:49:18.937Z,39.75
2022-11-26T03:51:48.448Z,39.70
2022-11-26T03:54:16.955Z,39.25
2022-11-26T03:56:45.400Z,35.92
2022-11-26T03:59:13.596Z,41.95
2022-11-26T04:01:41.960Z,36.10
2022-11-26T04:04:10.857Z,50.72
2022-11-26T04:06:39.295Z,40.83
2022-11-26T04:09:08.827Z,32.72
2022-11-26T04:11:37.415Z,35.92
2022-11-26T04:14:05.950Z,32.83
2022-11-26T04:16:34.238Z,37.75
2022-11-26T04:19:02.393Z,29.75
2022-11-26T04:21:30.818Z,40.10
2022-11-26T04:23:58.962Z,33.95
2022-11-26T04:26:28.532Z,39.70
2022-11-26T04:28:56.989Z,36.03
2022-11-26T04:31:25.346Z,29.40
2022-11-26T04:33:53.714Z,36.80
2022-11-26T04:36:22.395Z,33.28
2022-11-26T04:38:50.519Z,33.58
2022-11-26T04:41:19.101Z,39.25
2022-11-26T04:43:48.848Z,35.00
2022-11-26T04:46:16.983Z,34.33
2022-11-26T04:48:45.436Z,31.15
2022-11-26T04:51:13.756Z,36.50
2022-11-26T04:53:41.992Z,34.00
2022-11-26T04:56:10.394Z,34.78
2022-11-26T04:58:39.031Z,34.88
2022-11-26T05:01:08.776Z,38.25
2022-11-26T05:03:37.579Z,38.08
2022-11-26T05:06:06.101Z,33.75
2022-11-26T05:08:34.247Z,36.97
2022-11-26T05:11:03.300Z,36.25
2022-11-26T05:13:31.698Z,35.97
2022-11-26T05:15:59.918Z,32.88
2022-11-26T05:18:29.715Z,35.50
2022-11-26T05:20:57.851Z,32.85
2022-11-26T05:23:26.116Z,32.40
2022-11-26T05:25:54.497Z,37.22
2022-11-26T05:28:23.025Z,34.28
2022-11-26T05:30:51.355Z,30.17
2022-11-26T05:33:19.615Z,42.28
2022-11-26T05:35:49.215Z,34.67
2022-11-26T05:38:17.377Z,31.98
2022-11-26T05:40:46.317Z,50.15
2022-11-26T05:43:14.534Z,41.25
2022-11-26T05:45:43.222Z,38.30
2022-11-26T05:48:11.664Z,39.28
2022-11-26T05:50:40.298Z,41.63
2022-11-26T05:53:09.957Z,36.90
2022-11-26T05:55:38.411Z,34.55
2022-11-26T05:58:09.681Z,36.88
2022-11-26T06:00:37.821Z,35.70
2022-11-26T06:03:06.204Z,39.53
2022-11-26T06:05:34.447Z,34.72
2022-11-26T06:08:02.690Z,41.67
2022-11-26T06:10:32.610Z,38.70
2022-11-26T06:13:01.714Z,45.85
2022-11-26T06:15:30.016Z,35.90
2022-11-26T06:17:58.367Z,42.60
2022-11-26T06:20:26.459Z,36.63
2022-11-26T06:22:54.629Z,37.30
2022-11-26T06:25:22.940Z,42.00
2022-11-26T06:27:53.294Z,45.28
2022-11-26T06:30:21.831Z,39.60
2022-11-26T06:32:51.364Z,44.95
2022-11-26T06:35:19.487Z,38.80
2022-11-26T06:37:47.840Z,43.40
2022-11-26T06:40:18.884Z,39.88
2022-11-26T06:42:50.140Z,42.83
2022-11-26T06:45:20.113Z,44.97
2022-11-26T06:47:48.799Z,34.88
2022-11-26T06:50:18.678Z,41.65
2022-11-26T06:52:47.279Z,38.45
2022-11-26T06:55:15.392Z,42.92
2022-11-26T06:57:43.615Z,40.88
2022-11-26T07:00:13.419Z,39.88
2022-11-26T07:02:43.438Z,51.92
2022-11-26T07:05:11.800Z,47.00
2022-11-26T07:07:40.821Z,48.78
2022-11-26T07:10:09.652Z,46.47
2022-11-26T07:12:38.062Z,42.90
2022-11-26T07:15:07.293Z,44.63
2022-11-26T07:17:35.808Z,40.15
2022-11-26T07:20:06.022Z,35.25
2022-11-26T07:22:36.073Z,43.10
2022-11-26T07:25:09.357Z,41.08
2022-11-26T07:27:41.246Z,36.35
2022-11-26T07:30:10.698Z,36.92
2022-11-26T07:32:40.260Z,40.42
2022-11-26T07:35:10.087Z,41.28
2022-11-26T07:37:38.209Z,46.15
2022-11-26T07:40:08.020Z,49.53
2022-11-26T07:42:36.695Z,40.83
2022-11-26T07:45:05.306Z,38.35
2022-11-26T07:47:33.543Z,35.00
2022-11-26T07:50:02.304Z,47.20
2022-11-26T07:52:31.851Z,40.05
2022-11-26T07:55:00.503Z,42.38
2022-11-26T07:57:29.453Z,38.30
2022-11-26T07:59:57.596Z,42.05
2022-11-26T08:02:27.135Z,47.83
2022-11-26T08:04:55.336Z,44.75
2022-11-26T08:07:29.055Z,36.08
2022-11-26T08:09:59.226Z,41.63
2022-11-26T08:12:27.607Z,35.85
2022-11-26T08:14:55.755Z,40.28
2022-11-26T08:17:24.158Z,37.28
2022-11-26T08:19:52.255Z,40.45
2022-11-26T08:22:20.407Z,33.50
2022-11-26T08:24:49.025Z,31.52
2022-11-26T08:27:18.573Z,37.38
2022-11-26T08:29:46.644Z,34.72
2022-11-26T08:32:15.362Z,34.75
2022-11-26T08:34:43.626Z,33.65
2022-11-26T08:37:11.727Z,36.15
2022-11-26T08:39:40.534Z,34.78
2022-11-26T08:42:08.806Z,31.92
2022-11-26T08:44:38.617Z,32.25
2022-11-26T08:47:07.088Z,36.33
2022-11-26T08:49:35.232Z,36.88
2022-11-26T08:52:03.866Z,33.78
2022-11-26T08:54:32.398Z,31.35
2022-11-26T08:57:00.665Z,32.38
2022-11-26T08:59:28.804Z,33.65
2022-11-26T09:01:58.531Z,32.13
2022-11-26T09:04:26.919Z,35.42
2022-11-26T09:06:55.110Z,26.45
2022-11-26T09:09:23.295Z,31.75
2022-11-26T09:11:54.100Z,23.92
2022-11-26T09:14:25.992Z,25.48
2022-11-26T09:16:55.078Z,24.23
2022-11-26T09:19:25.025Z,30.92
2022-11-26T09:21:53.393Z,25.95
2022-11-26T09:24:23.090Z,27.95
2022-11-26T09:26:51.383Z,28.10
2022-11-26T09:29:22.320Z,24.58
2022-11-26T09:34:41.932Z,24.65
2022-11-26T09:37:10.520Z,24.60
2022-11-26T09:39:38.748Z,25.20
2022-11-26T09:42:08.913Z,23.65
2022-11-26T09:44:54.198Z,28.58
2022-11-26T09:47:23.908Z,25.13
2022-11-26T09:50:00.626Z,21.33
2022-11-26T09:52:34.953Z,20.85
2022-11-26T09:55:09.366Z,23.20
2022-11-26T09:57:43.119Z,19.15
2022-11-26T10:05:20.999Z,23.08
2022-11-26T10:08:01.640Z,17.13
2022-11-26T10:10:38.139Z,21.38
2022-11-26T10:13:19.384Z,20.02
2022-11-26T10:15:59.240Z,19.58
2022-11-26T10:18:39.084Z,24.90
2022-11-26T10:21:32.303Z,17.85
2022-11-26T10:24:07.162Z,16.77
2022-11-26T10:26:39.410Z,16.13
2022-11-26T10:29:22.438Z,20.40
2022-11-26T10:31:53.933Z,23.25
2022-11-26T10:34:31.304Z,18.02
2022-11-26T10:37:02.912Z,19.73
2022-11-26T10:39:31.488Z,22.13
2022-11-26T10:42:05.862Z,24.95
2022-11-26T10:44:40.765Z,16.58
2022-11-26T10:47:24.518Z,23.50
2022-11-26T10:49:54.322Z,21.33
2022-11-26T10:52:27.979Z,21.40
2022-11-26T10:57:50.289Z,20.15
2022-11-26T11:00:40.235Z,20.35
2022-11-26T11:03:17.512Z,27.23
2022-11-26T11:05:46.799Z,18.33
2022-11-26T11:08:29.810Z,21.30
2022-11-26T11:11:00.512Z,19.13
2022-11-26T11:13:42.278Z,20.85
2022-11-26T11:16:12.566Z,19.95
2022-11-26T11:18:50.339Z,17.50
2022-11-26T11:21:21.238Z,19.85
2022-11-26T11:24:08.192Z,22.80
2022-11-26T11:26:43.581Z,22.65
2022-11-26T11:29:27.632Z,18.90
2022-11-26T11:31:57.628Z,20.27
2022-11-26T11:34:31.778Z,13.65
2022-11-26T11:37:02.460Z,22.42
2022-11-26T11:39:33.957Z,20.85
2022-11-26T11:42:04.190Z,21.38
2022-11-26T11:44:39.600Z,22.38
2022-11-26T11:47:31.182Z,18.02
2022-11-26T11:50:17.879Z,20.10
2022-11-26T11:53:11.596Z,18.33
2022-11-26T11:55:52.312Z,19.73
2022-11-26T11:58:55.654Z,19.33
2022-11-26T12:01:37.234Z,17.83
2022-11-26T12:04:39.465Z,28.08
2022-11-26T12:07:31.712Z,21.58
2022-11-26T12:10:10.023Z,21.45
2022-11-26T12:12:44.579Z,18.88
2022-11-26T12:15:22.792Z,17.80
2022-11-26T12:17:56.732Z,19.33
2022-11-26T12:20:33.147Z,19.25
2022-11-26T12:23:22.622Z,19.70
2022-11-26T12:25:55.330Z,16.80
2022-11-26T12:28:29.303Z,19.27
2022-11-26T12:31:02.729Z,16.77
2022-11-26T12:33:35.196Z,17.65
2022-11-26T12:36:11.682Z,19.58
2022-11-26T12:38:46.151Z,19.35
2022-11-26T12:41:20.479Z,21.20
2022-11-26T12:43:56.282Z,22.90
2022-11-26T12:46:28.733Z,23.20
2022-11-26T12:49:04.824Z,20.98
2022-11-26T12:51:38.260Z,19.95
2022-11-26T12:54:16.542Z,20.05
2022-11-26T12:56:54.814Z,22.02
2022-11-26T12:59:30.739Z,15.90
2022-11-26T13:01:59.161Z,14.05
2022-11-26T13:04:37.730Z,19.55
2022-11-26T13:07:21.417Z,19.38
2022-11-26T13:10:02.560Z,23.77
2022-11-26T13:12:41.455Z,17.38
2022-11-26T13:15:19.096Z,19.33
2022-11-26T13:17:49.316Z,17.90
2022-11-26T13:20:46.898Z,17.75
2022-11-26T13:23:29.887Z,17.92
2022-11-26T13:26:17.599Z,20.80
2022-11-26T13:29:10.945Z,17.67
2022-11-26T13:31:58.646Z,20.83
2022-11-26T13:34:38.586Z,18.50
2022-11-26T13:37:42.462Z,18.95
2022-11-26T13:40:29.308Z,26.13
2022-11-26T13:43:35.469Z,20.08
2022-11-26T13:46:21.883Z,17.48
2022-11-26T13:48:58.571Z,20.50
2022-11-26T13:51:32.917Z,17.63
2022-11-26T13:54:07.587Z,20.75
2022-11-26T13:56:38.537Z,16.02
2022-11-26T13:59:15.289Z,22.55
2022-11-26T14:01:43.870Z,18.08
2022-11-26T14:04:15.055Z,21.92
2022-11-26T14:07:17.825Z,16.40
2022-11-26T14:09:54.956Z,18.25
2022-11-26T14:12:25.086Z,21.60
2022-11-26T14:14:53.369Z,22.33
2022-11-26T14:17:31.076Z,18.15
2022-11-26T14:20:10.394Z,16.52
2022-11-26T14:22:39.583Z,23.35
2022-11-26T14:25:11.174Z,20.30
2022-11-26T14:27:43.719Z,21.98
2022-11-26T14:30:28.477Z,21.45
2022-11-26T14:33:02.367Z,18.05
2022-11-26T14:35:34.559Z,19.17
2022-11-26T14:38:04.818Z,16.60
2022-11-26T14:40:35.045Z,20.60
2022-11-26T14:43:13.993Z,24.13
2022-11-26T14:45:43.262Z,19.98
2022-11-26T14:48:24.058Z,20.02
2022-11-26T14:50:54.888Z,24.30
2022-11-26T14:53:26.492Z,23.23
2022-11-26T14:55:55.378Z,22.15
2022-11-26T14:58:32.067Z,21.50
2022-11-26T15:01:09.122Z,24.60
2022-11-26T15:03:37.605Z,20.80
2022-11-26T15:06:07.817Z,21.83
2022-11-26T15:08:35.933Z,21.27
2022-11-26T15:11:07.868Z,21.35
2022-11-26T15:13:39.525Z,23.05
2022-11-26T15:16:26.868Z,21.75
2022-11-26T15:18:56.787Z,20.95
2022-11-26T15:21:29.247Z,25.52
2022-11-26T15:24:00.173Z,19.27
2022-11-26T15:26:34.474Z,22.95
2022-11-26T15:29:02.952Z,27.00
2022-11-26T15:31:41.874Z,23.65
2022-11-26T15:34:13.444Z,23.92
2022-11-26T15:36:43.593Z,23.05
2022-11-26T15:39:26.598Z,24.75
2022-11-26T15:41:57.719Z,21.48
2022-11-26T15:44:28.520Z,26.42
2022-11-26T15:47:00.843Z,26.17
2022-11-26T15:49:33.066Z,20.25
2022-11-26T15:52:05.685Z,21.30
2022-11-26T15:55:04.495Z,21.42
2022-11-26T15:57:29.641Z,28.10
2022-11-26T16:00:01.226Z,27.50
2022-11-26T16:02:31.445Z,20.85
2022-11-26T16:05:00.295Z,21.60
2022-11-26T16:07:31.264Z,21.00
2022-11-26T16:10:22.615Z,23.33
2022-11-26T16:13:23.977Z,27.83
2022-11-26T16:15:57.872Z,26.67
2022-11-26T16:18:37.554Z,22.88
2022-11-26T16:21:08.479Z,28.02
2022-11-26T16:23:38.418Z,28.25
2022-11-26T16:26:17.673Z,22.83
2022-11-26T16:28:47.349Z,21.65
2022-11-26T16:31:16.744Z,22.38
2022-11-26T16:33:45.820Z,28.33
2022-11-26T16:36:22.814Z,22.20
2022-11-26T16:38:53.388Z,22.98
2022-11-26T16:41:23.118Z,27.70
2022-11-26T16:43:51.400Z,33.00
2022-11-26T16:46:23.595Z,29.73
2022-11-26T16:48:52.607Z,26.83
2022-11-26T16:51:22.029Z,30.20
2022-11-26T16:53:51.744Z,35.30
2022-11-26T16:56:23.523Z,28.60
2022-11-26T16:58:53.006Z,32.88
2022-11-26T17:01:21.417Z,29.25
2022-11-26T17:03:49.954Z,32.70
2022-11-26T17:06:24.757Z,33.05
2022-11-26T17:08:55.575Z,38.47
2022-11-26T17:11:24.371Z,31.92
2022-11-26T17:13:52.981Z,41.33
2022-11-26T17:16:24.103Z,36.55
2022-11-26T17:18:52.423Z,32.55
2022-11-26T17:21:20.942Z,34.28
2022-11-26T17:23:49.510Z,45.47
2022-11-26T17:26:21.755Z,29.42
2022-11-26T17:28:50.439Z,35.67
2022-11-26T17:31:19.318Z,37.72
2022-11-26T17:33:47.891Z,32.22
2022-11-26T17:36:17.868Z,37.70
2022-11-26T17:38:47.062Z,34.42
2022-11-26T17:41:16.375Z,30.13
2022-11-26T17:43:45.917Z,35.60
2022-11-26T17:46:19.418Z,35.42
2022-11-26T17:51:16.630Z,42.85
2022-11-26T17:53:45.580Z,41.25
2022-11-26T17:56:19.167Z,37.58
2022-11-26T17:58:49.074Z,37.30
2022-11-26T18:01:18.478Z,37.92
2022-11-26T18:03:47.772Z,42.70
2022-11-26T18:06:17.864Z,38.95
2022-11-26T18:08:46.644Z,33.63
2022-11-26T18:11:16.787Z,38.08
2022-11-26T18:13:46.205Z,36.60
2022-11-26T18:16:15.925Z,31.60
2022-11-26T18:18:44.287Z,36.17
2022-11-26T18:21:13.699Z,40.05
2022-11-26T18:23:47.948Z,40.08
2022-11-26T18:26:18.612Z,41.50
2022-11-26T18:28:47.129Z,36.30
2022-11-26T18:31:16.877Z,35.05
2022-11-26T18:33:45.061Z,34.40
2022-11-26T18:36:13.926Z,40.25
2022-11-26T18:38:42.498Z,38.63
2022-11-26T18:41:10.634Z,40.38
2022-11-26T18:43:40.379Z,37.70
2022-11-26T18:46:11.754Z,34.72
2022-11-26T18:48:41.549Z,30.77
2022-11-26T18:51:10.392Z,38.90
2022-11-26T18:53:39.348Z,34.42
2022-11-26T18:56:12.477Z,39.05
2022-11-26T18:58:40.834Z,37.13
2022-11-26T19:01:16.342Z,33.08
2022-11-26T19:03:46.501Z,35.83
2022-11-26T19:06:17.938Z,31.73
2022-11-26T19:08:47.101Z,30.55
2022-11-26T19:11:19.065Z,29.83
2022-11-26T19:13:47.993Z,35.88
2022-11-26T19:16:18.172Z,34.45
2022-11-26T19:18:49.007Z,35.80
2022-11-26T19:21:19.981Z,31.40
2022-11-26T19:23:48.497Z,33.78
2022-11-26T19:26:17.203Z,30.17
2022-11-26T19:28:45.672Z,27.55
2022-11-26T19:31:15.716Z,32.50
2022-11-26T19:33:44.002Z,31.55
2022-11-26T19:36:16.275Z,28.02
2022-11-26T19:38:45.067Z,26.15
2022-11-26T19:41:13.657Z,27.35
2022-11-26T19:43:43.676Z,27.70
2022-11-26T19:46:13.672Z,25.42
2022-11-26T19:48:44.063Z,23.23
2022-11-26T19:51:15.067Z,29.30
2022-11-26T19:53:44.614Z,30.23
2022-11-26T19:56:16.935Z,26.70
2022-11-26T19:58:45.576Z,31.75
2022-11-26T20:01:17.426Z,26.33
2022-11-26T20:03:46.024Z,23.42
2022-11-26T20:06:18.893Z,24.77
2022-11-26T20:08:48.549Z,26.17
2022-11-26T20:11:18.342Z,26.48
2022-11-26T20:13:48.287Z,26.17
2022-11-26T20:16:19.222Z,23.40
2022-11-26T20:18:48.411Z,23.15
2022-11-26T20:21:20.862Z,26.40
2022-11-26T20:23:50.560Z,27.25
2022-11-26T20:26:21.997Z,32.53
2022-11-26T20:28:50.980Z,27.33
2022-11-26T20:31:23.572Z,24.40
2022-11-26T20:33:53.976Z,28.15
2022-11-26T20:36:24.371Z,28.27
2022-11-26T20:38:57.010Z,25.40
2022-11-26T20:41:26.572Z,23.05
2022-11-26T20:43:58.510Z,27.00
2022-11-26T20:46:29.336Z,27.70
2022-11-26T20:48:57.971Z,23.70
2022-11-26T20:51:27.528Z,24.35
2022-11-26T20:53:59.650Z,23.67
2022-11-26T20:56:28.638Z,26.90
2022-11-26T20:58:57.337Z,22.42
2022-11-26T21:01:28.035Z,21.88
2022-11-26T21:03:56.919Z,24.33
2022-11-26T21:06:30.664Z,18.17
2022-11-26T21:09:01.269Z,20.63
2022-11-26T21:11:31.687Z,23.48
2022-11-26T21:14:01.672Z,19.67
2022-11-26T21:16:30.632Z,20.45
2022-11-26T21:18:59.908Z,21.30
2022-11-26T21:21:30.218Z,19.92
2022-11-26T21:23:59.165Z,20.90
2022-11-26T21:26:28.509Z,18.10
2022-11-26T21:28:58.142Z,22.15
2022-11-26T21:31:27.683Z,19.38
2022-11-26T21:33:57.954Z,19.38
2022-11-26T21:36:26.689Z,22.15
2022-11-26T21:38:56.567Z,22.83
2022-11-26T21:41:25.409Z,23.40
2022-11-26T21:43:53.778Z,21.73
2022-11-26T21:46:24.730Z,23.60
2022-11-26T21:48:53.601Z,21.70
2022-11-26T21:51:23.263Z,22.23
2022-11-26T21:53:52.046Z,23.35
2022-11-26T21:56:24.872Z,21.17
2022-11-26T21:58:53.374Z,23.17
2022-11-26T22:01:24.235Z,25.52
2022-11-26T22:03:55.045Z,18.17
2022-11-26T22:06:24.763Z,24.70
2022-11-26T22:08:53.671Z,22.85
2022-11-26T22:11:25.394Z,25.02
2022-11-26T22:13:54.535Z,19.75
2022-11-26T22:16:24.800Z,19.40
2022-11-26T22:18:54.136Z,21.40
2022-11-26T22:21:25.092Z,20.55
2022-11-26T22:23:54.065Z,19.35
2022-11-26T22:26:24.499Z,17.27
2022-11-26T22:28:52.859Z,21.45
2022-11-26T22:31:23.328Z,18.40
2022-11-26T22:33:55.442Z,19.35
2022-11-26T22:36:24.141Z,18.20
2022-11-26T22:38:52.783Z,20.75
2022-11-26T22:41:21.209Z,16.73
2022-11-26T22:43:51.048Z,15.18
2022-11-26T22:46:21.108Z,18.60
2022-11-26T22:48:51.727Z,17.77
2022-11-26T22:51:20.896Z,17.52
2022-11-26T22:53:52.092Z,18.65
2022-11-26T22:56:21.221Z,17.88
2022-11-26T22:58:51.348Z,16.60
2022-11-26T23:01:21.256Z,17.98
2022-11-26T23:03:50.995Z,20.92
2022-11-26T23:06:21.422Z,20.15
2022-11-26T23:08:50.170Z,18.08
2022-11-26T23:11:22.783Z,16.98
2022-11-26T23:13:53.237Z,16.83
2022-11-26T23:16:25.629Z,16.77
2022-11-26T23:18:56.594Z,18.65
2022-11-26T23:21:26.743Z,17.08
2022-11-26T23:23:55.099Z,21.17
2022-11-26T23:26:27.586Z,18.13
2022-11-26T23:28:58.885Z,20.67
2022-11-26T23:31:29.420Z,17.20
2022-11-26T23:33:57.707Z,19.52
2022-11-26T23:36:27.396Z,19.45
2022-11-26T23:38:56.751Z,18.15
2022-11-26T23:41:24.892Z,18.45
2022-11-26T23:43:53.001Z,19.08
2022-11-26T23:46:24.529Z,19.73
2022-11-26T23:48:53.085Z,17.73
2022-11-26T23:51:23.260Z,21.33
2022-11-26T23:53:52.224Z,14.82
2022-11-26T23:56:23.053Z,17.45
2022-11-26T23:58:52.073Z,18.45
